N510MV KGPT-KCMI
Flight info
| Callsign | N510MV |
|---|---|
| Flight time | N/A |
| Altitude | 35000 |
| Route | PCU V555 MCB/N0340F350 J35 MEM J71 ENL CMI |
| Aircraft | C510/L-VGDW/C |
Departure
| Time | N/A |
|---|---|
| Airport | Gulfport Biloxi International Airport (KGPT) |
Arrival
| Time | 2026-05-04 01:36 |
|---|---|
| Airport | University of Illinois Willard Airport (KCMI) |
| Time | Latitude | Longitude | Altitude | Speed | Heading |
|---|---|---|---|---|---|
| 2026-05-04 01:09 | 39.37724 | -88.64096 | 14293 ft | 225 kts | 9° |
| 2026-05-04 01:10 | 39.38910 | -88.63442 | 14093 ft | 225 kts | 9° |
| 2026-05-04 01:10 | 39.40334 | -88.62662 | 13845 ft | 225 kts | 9° |
| 2026-05-04 01:10 | 39.41735 | -88.61888 | 13603 ft | 225 kts | 9° |
| 2026-05-04 01:10 | 39.43163 | -88.61105 | 13353 ft | 225 kts | 9° |
| 2026-05-04 01:11 | 39.44587 | -88.60324 | 13102 ft | 225 kts | 9° |
| 2026-05-04 01:11 | 39.46014 | -88.59537 | 12854 ft | 225 kts | 9° |
| 2026-05-04 01:11 | 39.47434 | -88.58754 | 12610 ft | 224 kts | 10° |
| 2026-05-04 01:11 | 39.48857 | -88.57971 | 12363 ft | 224 kts | 10° |
| 2026-05-04 01:12 | 39.50251 | -88.57200 | 12123 ft | 224 kts | 10° |
| 2026-05-04 01:12 | 39.51677 | -88.56418 | 11877 ft | 223 kts | 10° |
| 2026-05-04 01:12 | 39.53054 | -88.55652 | 11871 ft | 212 kts | 9° |
| 2026-05-04 01:12 | 39.54364 | -88.54922 | 11870 ft | 203 kts | 9° |
| 2026-05-04 01:13 | 39.55617 | -88.54228 | 11882 ft | 195 kts | 8° |
| 2026-05-04 01:13 | 39.56840 | -88.53553 | 11905 ft | 193 kts | 8° |
| 2026-05-04 01:13 | 39.58122 | -88.52871 | 11898 ft | 213 kts | 9° |
| 2026-05-04 01:13 | 39.59560 | -88.52101 | 11792 ft | 234 kts | 11° |
| 2026-05-04 01:14 | 39.61050 | -88.51263 | 11603 ft | 242 kts | 12° |
| 2026-05-04 01:14 | 39.62578 | -88.50408 | 11382 ft | 245 kts | 12° |
| 2026-05-04 01:14 | 39.64110 | -88.49547 | 11137 ft | 242 kts | 12° |
| 2026-05-04 01:14 | 39.65638 | -88.48701 | 10888 ft | 240 kts | 12° |
| 2026-05-04 01:15 | 39.67139 | -88.47869 | 10630 ft | 239 kts | 12° |
| 2026-05-04 01:15 | 39.68658 | -88.47024 | 10376 ft | 238 kts | 12° |
| 2026-05-04 01:15 | 39.70151 | -88.46197 | 10120 ft | 236 kts | 12° |
| 2026-05-04 01:15 | 39.71635 | -88.45374 | 9868 ft | 234 kts | 12° |
| 2026-05-04 01:16 | 39.73107 | -88.44554 | 9619 ft | 233 kts | 12° |
| 2026-05-04 01:16 | 39.74575 | -88.43741 | 9371 ft | 232 kts | 12° |
| 2026-05-04 01:16 | 39.76025 | -88.42935 | 9120 ft | 230 kts | 13° |
| 2026-05-04 01:16 | 39.77428 | -88.42148 | 8867 ft | 218 kts | 12° |
| 2026-05-04 01:17 | 39.78775 | -88.41393 | 8626 ft | 209 kts | 12° |
| 2026-05-04 01:17 | 39.80074 | -88.40669 | 8399 ft | 201 kts | 11° |
| 2026-05-04 01:17 | 39.81315 | -88.39981 | 8190 ft | 195 kts | 11° |
| 2026-05-04 01:17 | 39.82526 | -88.39307 | 7975 ft | 190 kts | 11° |
| 2026-05-04 01:18 | 39.83694 | -88.38659 | 7765 ft | 186 kts | 11° |
| 2026-05-04 01:18 | 39.84854 | -88.38013 | 7581 ft | 183 kts | 11° |
| 2026-05-04 01:18 | 39.85999 | -88.37375 | 7387 ft | 183 kts | 11° |
| 2026-05-04 01:18 | 39.87166 | -88.36728 | 7196 ft | 185 kts | 11° |
| 2026-05-04 01:19 | 39.88341 | -88.36073 | 6996 ft | 188 kts | 11° |
| 2026-05-04 01:19 | 39.89530 | -88.35411 | 6804 ft | 190 kts | 12° |
| 2026-05-04 01:19 | 39.90719 | -88.34747 | 6595 ft | 192 kts | 13° |
| 2026-05-04 01:19 | 39.91938 | -88.34064 | 6375 ft | 193 kts | 13° |
| 2026-05-04 01:20 | 39.93155 | -88.33384 | 6155 ft | 194 kts | 13° |
| 2026-05-04 01:20 | 39.94344 | -88.32719 | 5950 ft | 194 kts | 13° |
| 2026-05-04 01:20 | 39.95460 | -88.32094 | 5759 ft | 195 kts | 14° |
| 2026-05-04 01:20 | 39.96572 | -88.31472 | 5565 ft | 193 kts | 14° |
| 2026-05-04 01:21 | 39.97608 | -88.30887 | 5380 ft | 188 kts | 14° |
| 2026-05-04 01:21 | 39.98772 | -88.30234 | 5175 ft | 183 kts | 14° |
| 2026-05-04 01:21 | 39.99910 | -88.29595 | 4978 ft | 178 kts | 14° |
| 2026-05-04 01:21 | 40.00984 | -88.28993 | 4792 ft | 174 kts | 14° |
| 2026-05-04 01:22 | 40.01894 | -88.28482 | 4632 ft | 170 kts | 14° |
| 2026-05-04 01:22 | 40.02693 | -88.28033 | 4492 ft | 169 kts | 14° |
| 2026-05-04 01:22 | 40.03849 | -88.27337 | 4312 ft | 180 kts | 21° |
| 2026-05-04 01:22 | 40.04980 | -88.26485 | 4118 ft | 187 kts | 23° |
| 2026-05-04 01:23 | 40.06132 | -88.25604 | 3959 ft | 177 kts | 23° |
| 2026-05-04 01:23 | 40.07162 | -88.24825 | 3744 ft | 170 kts | 23° |
| 2026-05-04 01:23 | 40.08157 | -88.24072 | 3546 ft | 170 kts | 23° |
| 2026-05-04 01:23 | 40.09163 | -88.23318 | 3366 ft | 168 kts | 24° |
| 2026-05-04 01:24 | 40.10154 | -88.22576 | 3184 ft | 167 kts | 24° |
| 2026-05-04 01:24 | 40.11153 | -88.21824 | 2999 ft | 169 kts | 24° |
| 2026-05-04 01:24 | 40.12169 | -88.21072 | 2822 ft | 169 kts | 21° |
| 2026-05-04 01:24 | 40.13224 | -88.20456 | 2776 ft | 168 kts | 17° |
| 2026-05-04 01:25 | 40.14277 | -88.19864 | 2796 ft | 172 kts | 18° |
| 2026-05-04 01:25 | 40.15300 | -88.19284 | 2841 ft | 173 kts | 18° |
| 2026-05-04 01:25 | 40.16334 | -88.18697 | 2912 ft | 172 kts | 17° |
| 2026-05-04 01:25 | 40.17366 | -88.18076 | 2988 ft | 172 kts | 26° |
| 2026-05-04 01:26 | 40.18102 | -88.16893 | 3070 ft | 172 kts | 69° |
| 2026-05-04 01:26 | 40.18386 | -88.15410 | 3164 ft | 167 kts | 87° |
| 2026-05-04 01:26 | 40.18427 | -88.13934 | 3243 ft | 164 kts | 92° |
| 2026-05-04 01:26 | 40.18468 | -88.12523 | 3309 ft | 164 kts | 92° |
| 2026-05-04 01:27 | 40.18577 | -88.11142 | 3364 ft | 170 kts | 74° |
| 2026-05-04 01:27 | 40.18970 | -88.09784 | 3463 ft | 172 kts | 69° |
| 2026-05-04 01:27 | 40.19396 | -88.08318 | 3588 ft | 178 kts | 69° |
| 2026-05-04 01:27 | 40.19896 | -88.06843 | 3733 ft | 179 kts | 50° |
| 2026-05-04 01:28 | 40.20864 | -88.05986 | 3872 ft | 166 kts | 4° |
| 2026-05-04 01:28 | 40.21897 | -88.06179 | 3990 ft | 148 kts | 321° |
| 2026-05-04 01:28 | 40.22508 | -88.07193 | 3554 ft | 147 kts | 280° |
| 2026-05-04 01:28 | 40.22376 | -88.08467 | 3119 ft | 149 kts | 250° |
| 2026-05-04 01:29 | 40.21967 | -88.09669 | 2807 ft | 139 kts | 236° |
| 2026-05-04 01:29 | 40.21147 | -88.10249 | 2779 ft | 146 kts | 191° |
| 2026-05-04 01:29 | 40.20153 | -88.10313 | 2776 ft | 137 kts | 207° |
| 2026-05-04 01:29 | 40.19524 | -88.11085 | 2778 ft | 122 kts | 239° |
| 2026-05-04 01:30 | 40.19109 | -88.12006 | 2776 ft | 116 kts | 240° |
| 2026-05-04 01:30 | 40.18639 | -88.12820 | 2778 ft | 115 kts | 227° |
| 2026-05-04 01:30 | 40.18161 | -88.13661 | 2792 ft | 120 kts | 237° |
| 2026-05-04 01:30 | 40.17666 | -88.14541 | 2790 ft | 124 kts | 235° |
| 2026-05-04 01:31 | 40.17196 | -88.15478 | 2784 ft | 125 kts | 238° |
| 2026-05-04 01:31 | 40.16728 | -88.16435 | 2776 ft | 126 kts | 238° |
| 2026-05-04 01:31 | 40.16261 | -88.17387 | 2771 ft | 127 kts | 238° |
| 2026-05-04 01:31 | 40.15795 | -88.18344 | 2773 ft | 127 kts | 238° |
| 2026-05-04 01:32 | 40.15333 | -88.19303 | 2774 ft | 127 kts | 238° |
| 2026-05-04 01:32 | 40.14866 | -88.20261 | 2775 ft | 127 kts | 235° |
| 2026-05-04 01:32 | 40.14127 | -88.20849 | 2684 ft | 138 kts | 194° |
| 2026-05-04 01:32 | 40.13161 | -88.20598 | 2534 ft | 150 kts | 167° |
| 2026-05-04 01:33 | 40.12187 | -88.20331 | 2368 ft | 142 kts | 192° |
| 2026-05-04 01:33 | 40.11249 | -88.20596 | 2225 ft | 138 kts | 201° |
| 2026-05-04 01:33 | 40.10352 | -88.20969 | 2149 ft | 133 kts | 208° |
| 2026-05-04 01:33 | 40.09542 | -88.21470 | 2110 ft | 133 kts | 208° |
| 2026-05-04 01:34 | 40.08785 | -88.22063 | 2014 ft | 118 kts | 219° |
| 2026-05-04 01:34 | 40.08185 | -88.22757 | 1874 ft | 116 kts | 223° |
| 2026-05-04 01:34 | 40.07654 | -88.23436 | 1724 ft | 100 kts | 224° |
| 2026-05-04 01:34 | 40.07158 | -88.23977 | 1496 ft | 94 kts | 219° |
| 2026-05-04 01:35 | 40.06678 | -88.24542 | 1339 ft | 98 kts | 221° |
| 2026-05-04 01:35 | 40.06185 | -88.25125 | 1183 ft | 99 kts | 218° |
| 2026-05-04 01:35 | 40.05656 | -88.25709 | 1025 ft | 100 kts | 219° |
| 2026-05-04 01:35 | 40.05150 | -88.26307 | 917 ft | 100 kts | 218° |
| 2026-05-04 01:36 | 40.04631 | -88.26900 | 803 ft | 101 kts | 218° |
| 2026-05-04 01:36 | 40.04148 | -88.27437 | 736 ft | 80 kts | 220° |
| 2026-05-04 01:36 | 40.03843 | -88.27771 | 736 ft | 19 kts | 225° |
| 2026-05-04 01:36 | 40.03805 | -88.27818 | 736 ft | 6 kts | 187° |
| 2026-05-04 01:37 | 40.03789 | -88.27797 | 735 ft | 5 kts | 127° |
| 2026-05-04 01:37 | 40.03755 | -88.27748 | 735 ft | 10 kts | 131° |
| 2026-05-04 01:37 | 40.03702 | -88.27677 | 735 ft | 8 kts | 136° |
| 2026-05-04 01:37 | 40.03674 | -88.27631 | 734 ft | 5 kts | 83° |
| 2026-05-04 01:38 | 40.03692 | -88.27605 | 734 ft | 5 kts | 45° |
| 2026-05-04 01:38 | 40.03733 | -88.27553 | 735 ft | 12 kts | 43° |
| 2026-05-04 01:38 | 40.03804 | -88.27474 | 735 ft | 13 kts | 40° |
| 2026-05-04 01:38 | 40.03864 | -88.27406 | 735 ft | 10 kts | 41° |
| 2026-05-04 01:39 | 40.03906 | -88.27362 | 735 ft | 7 kts | 38° |
| 2026-05-04 01:39 | 40.03942 | -88.27323 | 736 ft | 9 kts | 55° |
| 2026-05-04 01:39 | 40.03920 | -88.27269 | 736 ft | 8 kts | 135° |
| 2026-05-04 01:39 | 40.03910 | -88.27213 | 736 ft | 6 kts | 44° |
| 2026-05-04 01:40 | 40.03936 | -88.27186 | 736 ft | 3 kts | 39° |
| 2026-05-04 01:40 | 40.03944 | -88.27154 | 736 ft | 4 kts | 89° |
| 2026-05-04 01:40 | 40.03944 | -88.27133 | 735 ft | 0 kts | 88° |